Aviation Digital Data Service (ADDS)

Output produced by METARs form (0639 UTC 24 March 2019)
found at http://www.aviationweather.gov/metar/data/
 
SGES 240500Z 00000KT 9000 NSC 21/20 Q1014
TAF SGES 240500Z 2406/2506 00000KT CAVOK TX28/2419Z TN18/2409Z 
     PROB30 2408/2411 00000KT 5000 BR BKN015 
     BECMG 2412/2415 17006KT 9999 SCT027 
     BECMG 2423/2501 02005KT CAVOK
       
TAF SGCO 240500Z 2406/2506 00000KT CAVOK TX30/2419Z TN20/2409Z 
     BECMG 2412/2415 15006KT 9999 SCT030 
     BECMG 2420/2423 CAVOK